NEA1400 KSGF-KCLE
Flight info
| Callsign | NEA1400 |
|---|---|
| Flight time | 1h 22m |
| Altitude | 39000 |
| Route | ENL DRUGA ROKNN4 |
| Aircraft | A319/M-SDE3FGHIRWY/LB1 |
Departure
| Time | 2026-05-06 13:51 |
|---|---|
| Airport | Springfield Branson National Airport (KSGF) |
Arrival
| Time | 2026-05-06 15:14 |
|---|---|
| Airport | Cleveland Hopkins International Airport (KCLE) |
| Time | Latitude | Longitude | Altitude | Speed | Heading |
|---|---|---|---|---|---|
| 2026-05-06 13:20 | 37.24092 | -93.39661 | 1269 ft | 0 kts | 162° |
| 2026-05-06 13:41 | 37.24102 | -93.39665 | 1268 ft | 4 kts | 160° |
| 2026-05-06 13:41 | 37.24125 | -93.39674 | 1272 ft | 4 kts | 158° |
| 2026-05-06 13:41 | 37.24145 | -93.39691 | 1271 ft | 4 kts | 108° |
| 2026-05-06 13:41 | 37.24142 | -93.39719 | 1270 ft | 4 kts | 51° |
| 2026-05-06 13:42 | 37.24125 | -93.39738 | 1271 ft | 1 kts | 22° |
| 2026-05-06 13:42 | 37.24124 | -93.39738 | 1270 ft | 0 kts | 22° |
| 2026-05-06 13:44 | 37.24130 | -93.39735 | 1274 ft | 2 kts | 22° |
| 2026-05-06 13:45 | 37.24154 | -93.39722 | 1270 ft | 5 kts | 22° |
| 2026-05-06 13:45 | 37.24177 | -93.39621 | 1269 ft | 9 kts | 112° |
| 2026-05-06 13:45 | 37.24149 | -93.39534 | 1269 ft | 12 kts | 111° |
| 2026-05-06 13:46 | 37.24121 | -93.39447 | 1272 ft | 4 kts | 111° |
| 2026-05-06 13:46 | 37.24127 | -93.39410 | 1269 ft | 5 kts | 51° |
| 2026-05-06 13:46 | 37.24162 | -93.39385 | 1270 ft | 7 kts | 26° |
| 2026-05-06 13:46 | 37.24192 | -93.39335 | 1270 ft | 8 kts | 85° |
| 2026-05-06 13:47 | 37.24172 | -93.39264 | 1272 ft | 9 kts | 112° |
| 2026-05-06 13:47 | 37.24148 | -93.39189 | 1273 ft | 9 kts | 112° |
| 2026-05-06 13:47 | 37.24123 | -93.39110 | 1275 ft | 10 kts | 111° |
| 2026-05-06 13:47 | 37.24097 | -93.39026 | 1277 ft | 11 kts | 111° |
| 2026-05-06 13:48 | 37.24069 | -93.38941 | 1280 ft | 10 kts | 118° |
| 2026-05-06 13:48 | 37.24013 | -93.38921 | 1282 ft | 9 kts | 193° |
| 2026-05-06 13:48 | 37.23947 | -93.38956 | 1281 ft | 12 kts | 202° |
| 2026-05-06 13:48 | 37.23854 | -93.39002 | 1278 ft | 17 kts | 201° |
| 2026-05-06 13:49 | 37.23755 | -93.39052 | 1277 ft | 14 kts | 201° |
| 2026-05-06 13:49 | 37.23668 | -93.39095 | 1275 ft | 12 kts | 198° |
| 2026-05-06 13:49 | 37.23618 | -93.39046 | 1274 ft | 9 kts | 112° |
| 2026-05-06 13:49 | 37.23594 | -93.38971 | 1275 ft | 10 kts | 112° |
| 2026-05-06 13:50 | 37.23592 | -93.38908 | 1275 ft | 6 kts | 34° |
| 2026-05-06 13:50 | 37.23601 | -93.38905 | 1275 ft | 1 kts | 19° |
| 2026-05-06 13:50 | 37.23668 | -93.38873 | 1276 ft | 33 kts | 22° |
| 2026-05-06 13:50 | 37.24082 | -93.38664 | 1283 ft | 94 kts | 21° |
| 2026-05-06 13:51 | 37.24875 | -93.38272 | 1345 ft | 143 kts | 21° |
| 2026-05-06 13:51 | 37.25798 | -93.37811 | 2034 ft | 143 kts | 21° |
| 2026-05-06 13:51 | 37.26717 | -93.37367 | 2867 ft | 141 kts | 21° |
| 2026-05-06 13:51 | 37.27565 | -93.36638 | 3294 ft | 166 kts | 53° |
| 2026-05-06 13:52 | 37.28003 | -93.35183 | 3716 ft | 191 kts | 70° |
| 2026-05-06 13:52 | 37.28457 | -93.33476 | 4056 ft | 221 kts | 68° |
| 2026-05-06 13:52 | 37.29000 | -93.31554 | 4700 ft | 245 kts | 68° |
| 2026-05-06 13:52 | 37.29590 | -93.29495 | 5638 ft | 255 kts | 68° |
| 2026-05-06 13:53 | 37.30205 | -93.27365 | 6614 ft | 264 kts | 68° |
| 2026-05-06 13:53 | 37.30848 | -93.25152 | 7415 ft | 276 kts | 68° |
| 2026-05-06 13:53 | 37.31523 | -93.22837 | 8158 ft | 290 kts | 68° |
| 2026-05-06 13:53 | 37.32237 | -93.20394 | 8867 ft | 304 kts | 67° |
| 2026-05-06 13:54 | 37.32982 | -93.17849 | 9571 ft | 317 kts | 67° |
| 2026-05-06 13:54 | 37.33761 | -93.15191 | 10180 ft | 334 kts | 67° |
| 2026-05-06 13:54 | 37.34593 | -93.12355 | 10522 ft | 358 kts | 68° |
| 2026-05-06 13:54 | 37.35472 | -93.09353 | 11066 ft | 371 kts | 68° |
| 2026-05-06 13:55 | 37.36370 | -93.06273 | 11797 ft | 379 kts | 68° |
| 2026-05-06 13:55 | 37.37281 | -93.03131 | 12516 ft | 386 kts | 69° |
| 2026-05-06 13:55 | 37.38202 | -92.99941 | 13261 ft | 392 kts | 69° |
| 2026-05-06 13:55 | 37.39138 | -92.96693 | 13967 ft | 398 kts | 69° |
| 2026-05-06 13:56 | 37.40089 | -92.93399 | 14600 ft | 404 kts | 69° |
| 2026-05-06 13:56 | 37.41071 | -92.90009 | 15234 ft | 410 kts | 69° |
| 2026-05-06 13:56 | 37.42057 | -92.86611 | 15850 ft | 417 kts | 69° |
| 2026-05-06 13:56 | 37.43058 | -92.83161 | 16455 ft | 423 kts | 69° |
| 2026-05-06 13:57 | 37.44074 | -92.79659 | 17057 ft | 429 kts | 69° |
| 2026-05-06 13:57 | 37.45090 | -92.76142 | 17686 ft | 436 kts | 69° |
| 2026-05-06 13:57 | 37.46130 | -92.72529 | 18285 ft | 442 kts | 69° |
| 2026-05-06 13:57 | 37.47195 | -92.68816 | 18835 ft | 448 kts | 69° |
| 2026-05-06 13:58 | 37.48256 | -92.65097 | 19334 ft | 454 kts | 69° |
| 2026-05-06 13:58 | 37.49330 | -92.61335 | 19848 ft | 460 kts | 69° |
| 2026-05-06 13:58 | 37.50419 | -92.57524 | 20386 ft | 465 kts | 69° |
| 2026-05-06 13:58 | 37.51521 | -92.53671 | 20917 ft | 470 kts | 69° |
| 2026-05-06 13:59 | 37.52623 | -92.49823 | 21434 ft | 476 kts | 69° |
| 2026-05-06 13:59 | 37.53752 | -92.45879 | 21925 ft | 481 kts | 69° |
| 2026-05-06 13:59 | 37.54904 | -92.41843 | 22450 ft | 486 kts | 69° |
| 2026-05-06 13:59 | 37.56050 | -92.37810 | 22944 ft | 491 kts | 69° |
| 2026-05-06 14:00 | 37.57205 | -92.33732 | 23429 ft | 496 kts | 70° |
| 2026-05-06 14:00 | 37.58353 | -92.29668 | 23870 ft | 502 kts | 70° |
| 2026-05-06 14:00 | 37.59543 | -92.25451 | 24292 ft | 506 kts | 70° |
| 2026-05-06 14:00 | 37.60724 | -92.21253 | 24713 ft | 510 kts | 70° |
| 2026-05-06 14:01 | 37.61915 | -92.17019 | 25132 ft | 514 kts | 69° |
| 2026-05-06 14:01 | 37.63117 | -92.12751 | 25542 ft | 518 kts | 69° |
| 2026-05-06 14:01 | 37.64330 | -92.08451 | 25945 ft | 522 kts | 69° |
| 2026-05-06 14:01 | 37.65551 | -92.04116 | 26343 ft | 527 kts | 69° |
| 2026-05-06 14:02 | 37.66780 | -91.99742 | 26737 ft | 531 kts | 69° |
| 2026-05-06 14:02 | 37.68014 | -91.95332 | 27123 ft | 535 kts | 69° |
| 2026-05-06 14:02 | 37.69255 | -91.90894 | 27499 ft | 539 kts | 69° |
| 2026-05-06 14:02 | 37.70504 | -91.86418 | 27941 ft | 542 kts | 69° |
| 2026-05-06 14:03 | 37.71760 | -91.81900 | 28299 ft | 547 kts | 69° |
| 2026-05-06 14:03 | 37.73003 | -91.77408 | 28668 ft | 551 kts | 69° |
| 2026-05-06 14:03 | 37.74271 | -91.72819 | 29058 ft | 555 kts | 69° |
| 2026-05-06 14:03 | 37.75564 | -91.68138 | 29438 ft | 559 kts | 69° |
| 2026-05-06 14:04 | 37.76848 | -91.63483 | 29804 ft | 563 kts | 69° |
| 2026-05-06 14:04 | 37.78142 | -91.58800 | 30166 ft | 567 kts | 69° |
| 2026-05-06 14:04 | 37.79445 | -91.54089 | 30472 ft | 570 kts | 69° |
| 2026-05-06 14:04 | 37.80754 | -91.49344 | 30749 ft | 573 kts | 69° |
| 2026-05-06 14:05 | 37.82069 | -91.44573 | 31074 ft | 576 kts | 69° |
| 2026-05-06 14:05 | 37.83383 | -91.39781 | 31381 ft | 579 kts | 69° |
| 2026-05-06 14:05 | 37.84700 | -91.34953 | 31665 ft | 582 kts | 70° |
| 2026-05-06 14:05 | 37.86021 | -91.30098 | 31954 ft | 585 kts | 70° |
| 2026-05-06 14:06 | 37.87329 | -91.25281 | 32230 ft | 588 kts | 70° |
| 2026-05-06 14:06 | 37.88660 | -91.20379 | 32525 ft | 590 kts | 70° |
| 2026-05-06 14:06 | 37.90009 | -91.15396 | 32930 ft | 590 kts | 70° |
| 2026-05-06 14:06 | 37.91338 | -91.10479 | 33330 ft | 590 kts | 70° |
| 2026-05-06 14:07 | 37.92662 | -91.05567 | 33738 ft | 590 kts | 70° |
| 2026-05-06 14:07 | 37.93990 | -91.00644 | 34136 ft | 591 kts | 70° |
| 2026-05-06 14:07 | 37.95299 | -90.95784 | 34563 ft | 591 kts | 70° |
| 2026-05-06 14:07 | 37.96626 | -90.90846 | 34889 ft | 592 kts | 70° |
| 2026-05-06 14:08 | 37.97969 | -90.85843 | 35235 ft | 592 kts | 70° |
| 2026-05-06 14:08 | 37.99291 | -90.80909 | 35582 ft | 592 kts | 70° |
| 2026-05-06 14:08 | 38.00614 | -90.75964 | 35903 ft | 592 kts | 70° |
| 2026-05-06 14:08 | 38.01932 | -90.71030 | 36273 ft | 591 kts | 70° |
| 2026-05-06 14:09 | 38.03246 | -90.66092 | 36626 ft | 590 kts | 70° |
| 2026-05-06 14:09 | 38.04536 | -90.61224 | 36965 ft | 590 kts | 70° |
| 2026-05-06 14:09 | 38.05841 | -90.56297 | 37303 ft | 590 kts | 70° |
| 2026-05-06 14:09 | 38.07150 | -90.51358 | 37629 ft | 590 kts | 70° |
| 2026-05-06 14:10 | 38.08469 | -90.46365 | 37961 ft | 589 kts | 70° |
| 2026-05-06 14:10 | 38.09768 | -90.41432 | 38275 ft | 589 kts | 70° |
| 2026-05-06 14:10 | 38.11062 | -90.36501 | 38590 ft | 589 kts | 70° |
| 2026-05-06 14:10 | 38.12356 | -90.31570 | 38871 ft | 588 kts | 70° |
| 2026-05-06 14:11 | 38.13647 | -90.26642 | 39023 ft | 587 kts | 70° |
| 2026-05-06 14:11 | 38.14931 | -90.21727 | 39066 ft | 586 kts | 70° |
| 2026-05-06 14:11 | 38.17488 | -90.11911 | 39059 ft | 585 kts | 70° |
| 2026-05-06 14:12 | 38.20041 | -90.02094 | 39066 ft | 585 kts | 70° |
| 2026-05-06 14:12 | 38.22582 | -89.92270 | 39056 ft | 585 kts | 70° |
| 2026-05-06 14:13 | 38.25101 | -89.82511 | 39052 ft | 584 kts | 70° |
| 2026-05-06 14:13 | 38.27641 | -89.72622 | 39060 ft | 584 kts | 70° |
| 2026-05-06 14:14 | 38.30156 | -89.62795 | 39051 ft | 584 kts | 70° |
| 2026-05-06 14:14 | 38.32645 | -89.53012 | 39052 ft | 584 kts | 70° |
| 2026-05-06 14:15 | 38.35136 | -89.43170 | 39051 ft | 584 kts | 70° |
| 2026-05-06 14:15 | 38.37627 | -89.33303 | 39051 ft | 584 kts | 70° |
| 2026-05-06 14:16 | 38.40116 | -89.23437 | 39043 ft | 585 kts | 70° |
| 2026-05-06 14:16 | 38.42599 | -89.13568 | 39059 ft | 584 kts | 70° |
| 2026-05-06 14:17 | 38.45213 | -89.03767 | 39066 ft | 583 kts | 68° |
| 2026-05-06 14:17 | 38.47923 | -88.94013 | 39068 ft | 583 kts | 68° |
| 2026-05-06 14:18 | 38.50600 | -88.84244 | 39045 ft | 583 kts | 68° |
| 2026-05-06 14:18 | 38.53224 | -88.74452 | 39055 ft | 583 kts | 69° |
| 2026-05-06 14:19 | 38.55821 | -88.64658 | 39055 ft | 582 kts | 69° |
| 2026-05-06 14:19 | 38.58409 | -88.54930 | 39062 ft | 582 kts | 69° |
| 2026-05-06 14:20 | 38.61023 | -88.45135 | 39054 ft | 582 kts | 69° |
| 2026-05-06 14:20 | 38.63612 | -88.35341 | 39062 ft | 581 kts | 69° |
| 2026-05-06 14:21 | 38.66188 | -88.25543 | 39078 ft | 581 kts | 69° |
| 2026-05-06 14:21 | 38.68758 | -88.15741 | 39063 ft | 581 kts | 69° |
| 2026-05-06 14:22 | 38.71318 | -88.05926 | 39021 ft | 581 kts | 69° |
| 2026-05-06 14:22 | 38.73873 | -87.96109 | 39025 ft | 581 kts | 69° |
| 2026-05-06 14:23 | 38.76423 | -87.86285 | 39031 ft | 581 kts | 69° |
| 2026-05-06 14:23 | 38.78961 | -87.76451 | 39029 ft | 581 kts | 69° |
| 2026-05-06 14:24 | 38.81487 | -87.66616 | 39016 ft | 581 kts | 69° |
| 2026-05-06 14:24 | 38.84012 | -87.56776 | 39026 ft | 581 kts | 69° |
| 2026-05-06 14:25 | 38.86527 | -87.46931 | 39071 ft | 581 kts | 69° |
| 2026-05-06 14:25 | 38.89028 | -87.37081 | 39014 ft | 580 kts | 69° |
| 2026-05-06 14:26 | 38.91521 | -87.27238 | 39004 ft | 580 kts | 69° |
| 2026-05-06 14:26 | 38.93987 | -87.17439 | 39032 ft | 580 kts | 69° |
| 2026-05-06 14:27 | 38.96467 | -87.07572 | 39036 ft | 581 kts | 69° |
| 2026-05-06 14:27 | 38.98944 | -86.97697 | 39028 ft | 581 kts | 69° |
| 2026-05-06 14:28 | 39.01008 | -86.89421 | 39010 ft | 580 kts | 70° |
| 2026-05-06 14:28 | 39.03462 | -86.79531 | 39029 ft | 580 kts | 70° |
| 2026-05-06 14:29 | 39.05901 | -86.69649 | 39031 ft | 579 kts | 70° |
| 2026-05-06 14:29 | 39.08331 | -86.59766 | 39038 ft | 580 kts | 70° |
| 2026-05-06 14:30 | 39.10755 | -86.49887 | 39011 ft | 579 kts | 70° |
| 2026-05-06 14:30 | 39.13179 | -86.40004 | 39011 ft | 579 kts | 70° |
| 2026-05-06 14:31 | 39.15584 | -86.30098 | 39015 ft | 580 kts | 70° |
| 2026-05-06 14:31 | 39.17982 | -86.20177 | 39013 ft | 580 kts | 70° |
| 2026-05-06 14:32 | 39.20381 | -86.10257 | 39015 ft | 580 kts | 70° |
| 2026-05-06 14:32 | 39.22745 | -86.00389 | 39020 ft | 580 kts | 70° |
| 2026-05-06 14:33 | 39.25120 | -85.90446 | 39024 ft | 580 kts | 70° |
| 2026-05-06 14:33 | 39.27495 | -85.80495 | 39026 ft | 580 kts | 70° |
| 2026-05-06 14:34 | 39.29860 | -85.70540 | 39042 ft | 580 kts | 70° |
| 2026-05-06 14:34 | 39.32209 | -85.60577 | 39027 ft | 580 kts | 70° |
| 2026-05-06 14:35 | 39.34550 | -85.50604 | 39018 ft | 580 kts | 70° |
| 2026-05-06 14:35 | 39.36892 | -85.40630 | 38995 ft | 580 kts | 70° |
| 2026-05-06 14:36 | 39.39216 | -85.30651 | 38998 ft | 580 kts | 71° |
| 2026-05-06 14:36 | 39.41532 | -85.20671 | 39004 ft | 579 kts | 71° |
| 2026-05-06 14:37 | 39.43834 | -85.10690 | 39003 ft | 579 kts | 71° |
| 2026-05-06 14:37 | 39.46132 | -85.00699 | 38993 ft | 579 kts | 71° |
| 2026-05-06 14:38 | 39.48420 | -84.90710 | 39028 ft | 579 kts | 71° |
| 2026-05-06 14:38 | 39.50700 | -84.80706 | 39014 ft | 579 kts | 71° |
| 2026-05-06 14:39 | 39.52972 | -84.70702 | 39009 ft | 579 kts | 71° |
| 2026-05-06 14:39 | 39.55234 | -84.60687 | 38997 ft | 579 kts | 71° |
| 2026-05-06 14:40 | 39.57491 | -84.50665 | 39018 ft | 579 kts | 71° |
| 2026-05-06 14:40 | 39.59739 | -84.40636 | 39018 ft | 579 kts | 71° |
| 2026-05-06 14:41 | 39.61977 | -84.30607 | 38993 ft | 579 kts | 71° |
| 2026-05-06 14:41 | 39.64204 | -84.20574 | 38987 ft | 579 kts | 71° |
| 2026-05-06 14:42 | 39.66433 | -84.10532 | 38955 ft | 581 kts | 69° |
| 2026-05-06 14:42 | 39.67861 | -84.05608 | 38037 ft | 588 kts | 59° |
| 2026-05-06 14:42 | 39.69844 | -84.00969 | 37290 ft | 582 kts | 49° |
| 2026-05-06 14:43 | 39.72212 | -83.96789 | 36814 ft | 570 kts | 41° |
| 2026-05-06 14:43 | 39.74884 | -83.93074 | 36400 ft | 554 kts | 32° |
| 2026-05-06 14:43 | 39.77746 | -83.89780 | 35676 ft | 550 kts | 29° |
| 2026-05-06 14:43 | 39.80660 | -83.86536 | 35084 ft | 549 kts | 29° |
| 2026-05-06 14:44 | 39.83552 | -83.83329 | 34658 ft | 544 kts | 29° |
| 2026-05-06 14:44 | 39.86432 | -83.80147 | 34178 ft | 541 kts | 29° |
| 2026-05-06 14:44 | 39.89297 | -83.76983 | 33658 ft | 540 kts | 29° |
| 2026-05-06 14:45 | 39.94966 | -83.70684 | 32725 ft | 531 kts | 29° |
| 2026-05-06 14:45 | 39.97757 | -83.67565 | 32258 ft | 527 kts | 30° |
| 2026-05-06 14:45 | 40.00529 | -83.64463 | 31793 ft | 523 kts | 30° |
| 2026-05-06 14:45 | 40.03242 | -83.61426 | 31336 ft | 519 kts | 30° |
| 2026-05-06 14:46 | 40.06006 | -83.58331 | 30872 ft | 514 kts | 30° |
| 2026-05-06 14:46 | 40.08708 | -83.55304 | 30440 ft | 510 kts | 30° |
| 2026-05-06 14:46 | 40.11359 | -83.52338 | 29953 ft | 507 kts | 30° |
| 2026-05-06 14:46 | 40.14021 | -83.49357 | 29507 ft | 501 kts | 30° |
| 2026-05-06 14:47 | 40.16645 | -83.46412 | 29079 ft | 495 kts | 30° |
| 2026-05-06 14:47 | 40.19230 | -83.43482 | 28661 ft | 491 kts | 31° |
| 2026-05-06 14:47 | 40.21750 | -83.40480 | 28213 ft | 488 kts | 33° |
| 2026-05-06 14:47 | 40.24204 | -83.37418 | 27769 ft | 486 kts | 34° |
| 2026-05-06 14:48 | 40.26608 | -83.34334 | 27331 ft | 483 kts | 35° |
| 2026-05-06 14:48 | 40.28992 | -83.31259 | 26925 ft | 479 kts | 36° |
| 2026-05-06 14:48 | 40.31373 | -83.28212 | 26438 ft | 477 kts | 35° |
| 2026-05-06 14:48 | 40.33743 | -83.25208 | 26009 ft | 473 kts | 35° |
| 2026-05-06 14:49 | 40.36111 | -83.22233 | 25551 ft | 470 kts | 35° |
| 2026-05-06 14:49 | 40.38473 | -83.19283 | 25093 ft | 468 kts | 36° |
| 2026-05-06 14:49 | 40.40826 | -83.16349 | 24620 ft | 466 kts | 36° |
| 2026-05-06 14:49 | 40.43166 | -83.13430 | 24267 ft | 461 kts | 36° |
| 2026-05-06 14:50 | 40.45492 | -83.10520 | 23786 ft | 460 kts | 36° |
| 2026-05-06 14:50 | 40.47785 | -83.07632 | 23425 ft | 455 kts | 37° |
| 2026-05-06 14:50 | 40.50049 | -83.04773 | 22971 ft | 444 kts | 37° |
| 2026-05-06 14:50 | 40.52235 | -83.02007 | 22537 ft | 430 kts | 36° |
| 2026-05-06 14:51 | 40.54369 | -82.99318 | 21972 ft | 421 kts | 36° |
| 2026-05-06 14:51 | 40.56471 | -82.96682 | 21485 ft | 414 kts | 36° |
| 2026-05-06 14:51 | 40.58550 | -82.94087 | 21230 ft | 410 kts | 36° |
| 2026-05-06 14:51 | 40.60610 | -82.91519 | 20995 ft | 407 kts | 36° |
| 2026-05-06 14:52 | 40.62661 | -82.88958 | 20738 ft | 405 kts | 36° |
| 2026-05-06 14:52 | 40.64697 | -82.86407 | 20486 ft | 403 kts | 37° |
| 2026-05-06 14:52 | 40.66718 | -82.83865 | 20241 ft | 401 kts | 37° |
| 2026-05-06 14:52 | 40.68725 | -82.81330 | 20016 ft | 398 kts | 37° |
| 2026-05-06 14:53 | 40.70709 | -82.78819 | 19783 ft | 393 kts | 37° |
| 2026-05-06 14:53 | 40.72674 | -82.76333 | 19532 ft | 390 kts | 37° |
| 2026-05-06 14:53 | 40.74629 | -82.73861 | 19298 ft | 388 kts | 37° |
| 2026-05-06 14:53 | 40.76568 | -82.71410 | 19167 ft | 386 kts | 37° |
| 2026-05-06 14:54 | 40.78502 | -82.68966 | 18921 ft | 384 kts | 38° |
| 2026-05-06 14:54 | 40.80426 | -82.66532 | 18665 ft | 382 kts | 38° |
| 2026-05-06 14:54 | 40.82336 | -82.64111 | 18410 ft | 379 kts | 38° |
| 2026-05-06 14:54 | 40.84230 | -82.61703 | 18142 ft | 377 kts | 38° |
| 2026-05-06 14:55 | 40.86114 | -82.59304 | 17883 ft | 375 kts | 38° |
| 2026-05-06 14:55 | 40.87990 | -82.56916 | 17625 ft | 374 kts | 38° |
| 2026-05-06 14:55 | 40.89862 | -82.54535 | 17308 ft | 372 kts | 39° |
| 2026-05-06 14:55 | 40.91711 | -82.52180 | 17064 ft | 368 kts | 39° |
| 2026-05-06 14:56 | 40.93547 | -82.49841 | 16810 ft | 366 kts | 39° |
| 2026-05-06 14:56 | 40.95351 | -82.47543 | 16476 ft | 364 kts | 39° |
| 2026-05-06 14:56 | 40.97173 | -82.45227 | 16021 ft | 363 kts | 39° |
| 2026-05-06 14:56 | 40.99019 | -82.42879 | 15569 ft | 362 kts | 39° |
| 2026-05-06 14:57 | 41.00829 | -82.40572 | 15190 ft | 360 kts | 40° |
| 2026-05-06 14:57 | 41.02626 | -82.38273 | 14693 ft | 360 kts | 40° |
| 2026-05-06 14:57 | 41.04416 | -82.35977 | 14335 ft | 356 kts | 40° |
| 2026-05-06 14:57 | 41.06189 | -82.33693 | 13851 ft | 354 kts | 41° |
| 2026-05-06 14:58 | 41.07924 | -82.31419 | 13574 ft | 350 kts | 41° |
| 2026-05-06 14:58 | 41.09639 | -82.29148 | 13308 ft | 347 kts | 42° |
| 2026-05-06 14:58 | 41.11338 | -82.26892 | 13008 ft | 345 kts | 42° |
| 2026-05-06 14:58 | 41.13028 | -82.24650 | 12732 ft | 343 kts | 42° |
| 2026-05-06 14:59 | 41.14713 | -82.22419 | 12453 ft | 341 kts | 42° |
| 2026-05-06 14:59 | 41.16393 | -82.20200 | 12177 ft | 340 kts | 42° |
| 2026-05-06 14:59 | 41.18065 | -82.17990 | 11900 ft | 338 kts | 42° |
| 2026-05-06 14:59 | 41.19725 | -82.15792 | 11627 ft | 337 kts | 42° |
| 2026-05-06 15:00 | 41.21382 | -82.13593 | 11354 ft | 336 kts | 42° |
| 2026-05-06 15:00 | 41.23030 | -82.11404 | 11082 ft | 334 kts | 42° |
| 2026-05-06 15:00 | 41.24647 | -82.09253 | 10813 ft | 333 kts | 42° |
| 2026-05-06 15:00 | 41.26281 | -82.07078 | 10544 ft | 332 kts | 42° |
| 2026-05-06 15:01 | 41.27905 | -82.04914 | 10280 ft | 330 kts | 41° |
| 2026-05-06 15:01 | 41.29635 | -82.02963 | 10011 ft | 322 kts | 28° |
| 2026-05-06 15:01 | 41.31570 | -82.01527 | 9638 ft | 317 kts | 22° |
| 2026-05-06 15:01 | 41.33517 | -82.00162 | 9299 ft | 314 kts | 22° |
| 2026-05-06 15:02 | 41.35432 | -81.98809 | 8980 ft | 310 kts | 23° |
| 2026-05-06 15:02 | 41.37321 | -81.97473 | 8672 ft | 306 kts | 23° |
| 2026-05-06 15:02 | 41.39192 | -81.96151 | 8364 ft | 302 kts | 24° |
| 2026-05-06 15:02 | 41.41044 | -81.94841 | 8035 ft | 300 kts | 24° |
| 2026-05-06 15:03 | 41.42871 | -81.93548 | 7750 ft | 295 kts | 24° |
| 2026-05-06 15:03 | 41.44680 | -81.92266 | 7453 ft | 292 kts | 24° |
| 2026-05-06 15:03 | 41.46442 | -81.91016 | 7331 ft | 282 kts | 24° |
| 2026-05-06 15:03 | 41.48147 | -81.89806 | 7208 ft | 273 kts | 24° |
| 2026-05-06 15:04 | 41.49802 | -81.88633 | 7114 ft | 265 kts | 24° |
| 2026-05-06 15:04 | 41.51322 | -81.87287 | 6813 ft | 268 kts | 41° |
| 2026-05-06 15:04 | 41.52583 | -81.85392 | 6296 ft | 276 kts | 47° |
| 2026-05-06 15:04 | 41.53846 | -81.83432 | 5812 ft | 280 kts | 46° |
| 2026-05-06 15:05 | 41.55103 | -81.81464 | 5458 ft | 275 kts | 47° |
| 2026-05-06 15:05 | 41.56315 | -81.79560 | 5145 ft | 263 kts | 46° |
| 2026-05-06 15:05 | 41.57473 | -81.77729 | 4837 ft | 253 kts | 46° |
| 2026-05-06 15:05 | 41.58587 | -81.75968 | 4527 ft | 244 kts | 47° |
| 2026-05-06 15:06 | 41.59660 | -81.74262 | 4220 ft | 237 kts | 47° |
| 2026-05-06 15:06 | 41.60704 | -81.72592 | 3908 ft | 231 kts | 47° |
| 2026-05-06 15:06 | 41.61485 | -81.70754 | 3774 ft | 226 kts | 70° |
| 2026-05-06 15:06 | 41.61580 | -81.68702 | 3724 ft | 221 kts | 98° |
| 2026-05-06 15:07 | 41.60987 | -81.66836 | 3674 ft | 219 kts | 124° |
| 2026-05-06 15:07 | 41.59854 | -81.65542 | 3640 ft | 212 kts | 153° |
| 2026-05-06 15:07 | 41.58470 | -81.65058 | 3574 ft | 202 kts | 180° |
| 2026-05-06 15:07 | 41.57149 | -81.65341 | 3516 ft | 185 kts | 205° |
| 2026-05-06 15:08 | 41.56110 | -81.66165 | 3465 ft | 164 kts | 222° |
| 2026-05-06 15:08 | 41.55221 | -81.67045 | 3419 ft | 155 kts | 221° |
| 2026-05-06 15:08 | 41.54388 | -81.67859 | 3388 ft | 144 kts | 220° |
| 2026-05-06 15:08 | 41.53594 | -81.68636 | 3353 ft | 140 kts | 222° |
| 2026-05-06 15:09 | 41.52807 | -81.69408 | 3331 ft | 140 kts | 221° |
| 2026-05-06 15:09 | 41.52025 | -81.70177 | 3295 ft | 140 kts | 222° |
| 2026-05-06 15:09 | 41.51240 | -81.70949 | 3269 ft | 140 kts | 221° |
| 2026-05-06 15:09 | 41.50454 | -81.71719 | 3232 ft | 140 kts | 222° |
| 2026-05-06 15:10 | 41.49670 | -81.72488 | 3165 ft | 140 kts | 222° |
| 2026-05-06 15:10 | 41.48946 | -81.73323 | 3050 ft | 138 kts | 232° |
| 2026-05-06 15:10 | 41.48297 | -81.74266 | 2878 ft | 137 kts | 233° |
| 2026-05-06 15:10 | 41.47669 | -81.75220 | 2698 ft | 136 kts | 235° |
| 2026-05-06 15:11 | 41.47054 | -81.76176 | 2524 ft | 136 kts | 234° |
| 2026-05-06 15:11 | 41.46447 | -81.77128 | 2339 ft | 134 kts | 235° |
| 2026-05-06 15:11 | 41.46039 | -81.77772 | 2204 ft | 136 kts | 236° |
| 2026-05-06 15:11 | 41.45429 | -81.78737 | 2029 ft | 136 kts | 237° |
| 2026-05-06 15:12 | 41.44823 | -81.79694 | 1833 ft | 135 kts | 235° |
| 2026-05-06 15:12 | 41.44220 | -81.80648 | 1656 ft | 134 kts | 234° |
| 2026-05-06 15:12 | 41.43614 | -81.81599 | 1436 ft | 133 kts | 236° |
| 2026-05-06 15:12 | 41.43019 | -81.82534 | 1258 ft | 132 kts | 235° |
| 2026-05-06 15:13 | 41.42430 | -81.83467 | 1027 ft | 130 kts | 233° |
| 2026-05-06 15:13 | 41.41858 | -81.84384 | 885 ft | 127 kts | 237° |
| 2026-05-06 15:13 | 41.41291 | -81.85280 | 773 ft | 123 kts | 234° |
| 2026-05-06 15:13 | 41.40820 | -81.86038 | 769 ft | 85 kts | 230° |
| 2026-05-06 15:14 | 41.40542 | -81.86475 | 768 ft | 45 kts | 230° |
| 2026-05-06 15:14 | 41.40378 | -81.86651 | 768 ft | 25 kts | 193° |
| 2026-05-06 15:14 | 41.40220 | -81.86546 | 770 ft | 28 kts | 139° |
| 2026-05-06 15:14 | 41.40081 | -81.86391 | 768 ft | 24 kts | 140° |
| 2026-05-06 15:15 | 41.39988 | -81.86287 | 768 ft | 18 kts | 130° |
| 2026-05-06 15:15 | 41.40035 | -81.86146 | 768 ft | 19 kts | 50° |
| 2026-05-06 15:15 | 41.40128 | -81.86000 | 768 ft | 22 kts | 44° |
| 2026-05-06 15:15 | 41.40281 | -81.85931 | 766 ft | 25 kts | 24° |
| 2026-05-06 15:16 | 41.40411 | -81.85750 | 767 ft | 29 kts | 50° |
| 2026-05-06 15:16 | 41.40549 | -81.85533 | 766 ft | 33 kts | 50° |
| 2026-05-06 15:16 | 41.40700 | -81.85293 | 766 ft | 30 kts | 50° |
| 2026-05-06 15:16 | 41.40838 | -81.85075 | 766 ft | 28 kts | 50° |
| 2026-05-06 15:17 | 41.40972 | -81.84863 | 769 ft | 32 kts | 50° |
| 2026-05-06 15:17 | 41.41082 | -81.84688 | 769 ft | 20 kts | 54° |
| 2026-05-06 15:17 | 41.41028 | -81.84532 | 768 ft | 23 kts | 142° |
| 2026-05-06 15:17 | 41.40937 | -81.84398 | 768 ft | 20 kts | 97° |
| 2026-05-06 15:18 | 41.40951 | -81.84247 | 767 ft | 13 kts | 75° |
| 2026-05-06 15:18 | 41.40936 | -81.84144 | 766 ft | 9 kts | 148° |
| 2026-05-06 15:18 | 41.40900 | -81.84109 | 766 ft | 2 kts | 141° |
| 2026-05-06 15:18 | 41.40890 | -81.84098 | 766 ft | 0 kts | 141° |